SCTE 221000Z 36015KT 8000 -RA OVC015 09/08 Q1006 NOSIG